sensor_id;sensor_type;location;lat;lon;timestamp;P1;durP1;ratioP1;P2;durP2;ratioP2
33108;SDS011;19481;51.118;6.940;2023-09-07T00:00:30;5.55;;;2.58;;
33108;SDS011;19481;51.118;6.940;2023-09-07T00:05:31;2.90;;;2.20;;
33108;SDS011;19481;51.118;6.940;2023-09-07T00:10:34;3.10;;;2.60;;
33108;SDS011;19481;51.118;6.940;2023-09-07T00:15:37;2.80;;;2.60;;
33108;SDS011;19481;51.118;6.940;2023-09-07T00:20:39;2.83;;;2.60;;
33108;SDS011;19481;51.118;6.940;2023-09-07T00:25:42;5.78;;;2.45;;
33108;SDS011;19481;51.118;6.940;2023-09-07T00:30:43;3.67;;;2.70;;
33108;SDS011;19481;51.118;6.940;2023-09-07T00:35:45;4.22;;;2.33;;
33108;SDS011;19481;51.118;6.940;2023-09-07T00:40:48;3.15;;;2.42;;
33108;SDS011;19481;51.118;6.940;2023-09-07T00:45:50;3.53;;;2.05;;
33108;SDS011;19481;51.118;6.940;2023-09-07T00:50:51;2.85;;;2.25;;
33108;SDS011;19481;51.118;6.940;2023-09-07T00:55:55;3.50;;;2.45;;
33108;SDS011;19481;51.118;6.940;2023-09-07T01:00:57;4.47;;;2.08;;
33108;SDS011;19481;51.118;6.940;2023-09-07T01:06:01;3.05;;;2.22;;
33108;SDS011;19481;51.118;6.940;2023-09-07T01:11:16;5.32;;;2.25;;
33108;SDS011;19481;51.118;6.940;2023-09-07T01:16:20;4.65;;;2.65;;
33108;SDS011;19481;51.118;6.940;2023-09-07T01:21:23;2.90;;;2.50;;
33108;SDS011;19481;51.118;6.940;2023-09-07T01:26:27;3.97;;;2.50;;
33108;SDS011;19481;51.118;6.940;2023-09-07T01:31:29;3.22;;;2.65;;
33108;SDS011;19481;51.118;6.940;2023-09-07T01:36:31;4.80;;;2.80;;
33108;SDS011;19481;51.118;6.940;2023-09-07T01:41:33;4.50;;;2.30;;
33108;SDS011;19481;51.118;6.940;2023-09-07T01:46:35;4.90;;;2.63;;
33108;SDS011;19481;51.118;6.940;2023-09-07T01:51:37;3.63;;;2.70;;
33108;SDS011;19481;51.118;6.940;2023-09-07T01:56:40;3.42;;;2.15;;
33108;SDS011;19481;51.118;6.940;2023-09-07T02:01:41;9.23;;;2.63;;
33108;SDS011;19481;51.118;6.940;2023-09-07T02:06:43;2.90;;;2.47;;
33108;SDS011;19481;51.118;6.940;2023-09-07T02:11:46;2.63;;;2.40;;
33108;SDS011;19481;51.118;6.940;2023-09-07T02:16:48;3.90;;;2.50;;
33108;SDS011;19481;51.118;6.940;2023-09-07T02:21:50;2.95;;;2.53;;
33108;SDS011;19481;51.118;6.940;2023-09-07T02:26:54;4.30;;;2.63;;
33108;SDS011;19481;51.118;6.940;2023-09-07T02:31:55;3.20;;;2.63;;
33108;SDS011;19481;51.118;6.940;2023-09-07T02:36:57;3.70;;;2.45;;
33108;SDS011;19481;51.118;6.940;2023-09-07T02:42:00;3.70;;;2.60;;
33108;SDS011;19481;51.118;6.940;2023-09-07T02:47:02;2.67;;;2.40;;
33108;SDS011;19481;51.118;6.940;2023-09-07T02:52:04;4.63;;;2.88;;
33108;SDS011;19481;51.118;6.940;2023-09-07T02:57:07;2.50;;;2.30;;
33108;SDS011;19481;51.118;6.940;2023-09-07T03:02:09;4.15;;;2.20;;
33108;SDS011;19481;51.118;6.940;2023-09-07T03:07:11;5.20;;;2.50;;
33108;SDS011;19481;51.118;6.940;2023-09-07T03:12:14;3.30;;;2.50;;
33108;SDS011;19481;51.118;6.940;2023-09-07T03:17:16;2.83;;;2.45;;
33108;SDS011;19481;51.118;6.940;2023-09-07T03:22:17;5.35;;;2.33;;
33108;SDS011;19481;51.118;6.940;2023-09-07T03:27:21;5.50;;;2.58;;
33108;SDS011;19481;51.118;6.940;2023-09-07T03:32:22;5.22;;;2.90;;
33108;SDS011;19481;51.118;6.940;2023-09-07T03:37:27;3.83;;;2.70;;
33108;SDS011;19481;51.118;6.940;2023-09-07T03:42:29;2.97;;;2.67;;
33108;SDS011;19481;51.118;6.940;2023-09-07T03:47:31;3.17;;;2.50;;
33108;SDS011;19481;51.118;6.940;2023-09-07T03:52:33;5.88;;;2.25;;
33108;SDS011;19481;51.118;6.940;2023-09-07T03:57:36;2.60;;;2.40;;
33108;SDS011;19481;51.118;6.940;2023-09-07T04:02:38;2.92;;;2.63;;
33108;SDS011;19481;51.118;6.940;2023-09-07T04:07:39;5.68;;;2.63;;
33108;SDS011;19481;51.118;6.940;2023-09-07T04:12:42;4.20;;;2.90;;
33108;SDS011;19481;51.118;6.940;2023-09-07T04:17:44;4.43;;;2.80;;
33108;SDS011;19481;51.118;6.940;2023-09-07T04:22:45;2.92;;;2.42;;
33108;SDS011;19481;51.118;6.940;2023-09-07T04:27:49;4.53;;;2.90;;
33108;SDS011;19481;51.118;6.940;2023-09-07T04:32:51;4.45;;;2.47;;
33108;SDS011;19481;51.118;6.940;2023-09-07T04:37:53;7.75;;;2.67;;
33108;SDS011;19481;51.118;6.940;2023-09-07T04:42:55;2.83;;;2.63;;
33108;SDS011;19481;51.118;6.940;2023-09-07T04:47:57;4.20;;;2.53;;
33108;SDS011;19481;51.118;6.940;2023-09-07T04:52:59;3.55;;;2.83;;
33108;SDS011;19481;51.118;6.940;2023-09-07T04:58:02;3.15;;;2.70;;
33108;SDS011;19481;51.118;6.940;2023-09-07T05:03:04;5.88;;;2.90;;
33108;SDS011;19481;51.118;6.940;2023-09-07T05:08:05;3.40;;;2.83;;
33108;SDS011;19481;51.118;6.940;2023-09-07T05:13:08;3.22;;;2.92;;
33108;SDS011;19481;51.118;6.940;2023-09-07T05:18:10;3.88;;;2.80;;
33108;SDS011;19481;51.118;6.940;2023-09-07T05:23:12;3.83;;;2.80;;
33108;SDS011;19481;51.118;6.940;2023-09-07T05:28:17;4.88;;;3.17;;
33108;SDS011;19481;51.118;6.940;2023-09-07T05:33:18;4.40;;;3.03;;
33108;SDS011;19481;51.118;6.940;2023-09-07T05:38:20;11.80;;;3.30;;
33108;SDS011;19481;51.118;6.940;2023-09-07T05:43:23;4.55;;;3.55;;
33108;SDS011;19481;51.118;6.940;2023-09-07T05:48:25;5.22;;;3.58;;
33108;SDS011;19481;51.118;6.940;2023-09-07T05:53:26;8.82;;;4.13;;
33108;SDS011;19481;51.118;6.940;2023-09-07T05:58:30;13.00;;;4.00;;
33108;SDS011;19481;51.118;6.940;2023-09-07T06:03:32;6.25;;;3.30;;
33108;SDS011;19481;51.118;6.940;2023-09-07T06:08:35;7.18;;;4.45;;
33108;SDS011;19481;51.118;6.940;2023-09-07T06:13:38;12.68;;;3.90;;
33108;SDS011;19481;51.118;6.940;2023-09-07T06:18:39;6.35;;;3.60;;
33108;SDS011;19481;51.118;6.940;2023-09-07T06:23:41;5.80;;;4.35;;
33108;SDS011;19481;51.118;6.940;2023-09-07T06:28:44;10.30;;;4.50;;
33108;SDS011;19481;51.118;6.940;2023-09-07T06:33:46;12.95;;;3.95;;
33108;SDS011;19481;51.118;6.940;2023-09-07T06:38:47;6.07;;;3.42;;
33108;SDS011;19481;51.118;6.940;2023-09-07T06:43:51;6.68;;;3.58;;
33108;SDS011;19481;51.118;6.940;2023-09-07T06:48:52;5.88;;;3.55;;
33108;SDS011;19481;51.118;6.940;2023-09-07T06:53:54;8.43;;;4.05;;
33108;SDS011;19481;51.118;6.940;2023-09-07T06:58:57;5.68;;;3.30;;
33108;SDS011;19481;51.118;6.940;2023-09-07T07:03:59;14.57;;;3.38;;
33108;SDS011;19481;51.118;6.940;2023-09-07T07:09:00;4.38;;;2.65;;
33108;SDS011;19481;51.118;6.940;2023-09-07T07:14:03;6.53;;;2.80;;
33108;SDS011;19481;51.118;6.940;2023-09-07T07:19:05;5.07;;;2.60;;
33108;SDS011;19481;51.118;6.940;2023-09-07T07:24:07;6.57;;;2.85;;
33108;SDS011;19481;51.118;6.940;2023-09-07T07:29:10;4.90;;;2.17;;
33108;SDS011;19481;51.118;6.940;2023-09-07T07:34:12;2.80;;;2.20;;
33108;SDS011;19481;51.118;6.940;2023-09-07T07:39:13;2.10;;;1.90;;
33108;SDS011;19481;51.118;6.940;2023-09-07T07:44:17;3.60;;;2.30;;
33108;SDS011;19481;51.118;6.940;2023-09-07T07:49:19;1.77;;;1.67;;
33108;SDS011;19481;51.118;6.940;2023-09-07T07:54:20;4.18;;;1.98;;
33108;SDS011;19481;51.118;6.940;2023-09-07T07:59:24;2.20;;;2.00;;
33108;SDS011;19481;51.118;6.940;2023-09-07T08:04:26;4.22;;;1.85;;
33108;SDS011;19481;51.118;6.940;2023-09-07T08:09:28;1.80;;;1.70;;
33108;SDS011;19481;51.118;6.940;2023-09-07T08:14:31;2.10;;;1.90;;
33108;SDS011;19481;51.118;6.940;2023-09-07T08:19:33;2.22;;;2.00;;
33108;SDS011;19481;51.118;6.940;2023-09-07T08:24:34;3.67;;;2.17;;
33108;SDS011;19481;51.118;6.940;2023-09-07T08:29:37;3.60;;;2.03;;
33108;SDS011;19481;51.118;6.940;2023-09-07T08:34:39;2.45;;;1.92;;
33108;SDS011;19481;51.118;6.940;2023-09-07T08:39:42;2.33;;;1.88;;
33108;SDS011;19481;51.118;6.940;2023-09-07T08:44:45;4.63;;;2.05;;
33108;SDS011;19481;51.118;6.940;2023-09-07T08:49:47;3.13;;;2.20;;
33108;SDS011;19481;51.118;6.940;2023-09-07T08:54:50;4.35;;;2.00;;
33108;SDS011;19481;51.118;6.940;2023-09-07T08:59:54;2.33;;;1.92;;
33108;SDS011;19481;51.118;6.940;2023-09-07T09:04:56;6.18;;;2.08;;
33108;SDS011;19481;51.118;6.940;2023-09-07T09:10:02;4.15;;;2.10;;
33108;SDS011;19481;51.118;6.940;2023-09-07T09:15:07;2.63;;;2.10;;
33108;SDS011;19481;51.118;6.940;2023-09-07T09:20:19;2.28;;;2.00;;
33108;SDS011;19481;51.118;6.940;2023-09-07T09:25:22;3.38;;;1.90;;
33108;SDS011;19481;51.118;6.940;2023-09-07T09:30:26;3.20;;;2.28;;
33108;SDS011;19481;51.118;6.940;2023-09-07T09:35:28;2.08;;;1.88;;
33108;SDS011;19481;51.118;6.940;2023-09-07T09:40:29;3.78;;;2.08;;
33108;SDS011;19481;51.118;6.940;2023-09-07T09:45:33;4.05;;;1.85;;
33108;SDS011;19481;51.118;6.940;2023-09-07T09:50:35;2.92;;;2.30;;
33108;SDS011;19481;51.118;6.940;2023-09-07T09:55:38;1.85;;;1.73;;
33108;SDS011;19481;51.118;6.940;2023-09-07T10:00:41;2.22;;;1.88;;
33108;SDS011;19481;51.118;6.940;2023-09-07T10:05:44;4.32;;;2.28;;
33108;SDS011;19481;51.118;6.940;2023-09-07T10:10:47;3.47;;;1.90;;
33108;SDS011;19481;51.118;6.940;2023-09-07T10:15:59;2.10;;;1.95;;
33108;SDS011;19481;51.118;6.940;2023-09-07T10:21:01;4.75;;;2.03;;
33108;SDS011;19481;51.118;6.940;2023-09-07T10:26:04;2.50;;;1.92;;
33108;SDS011;19481;51.118;6.940;2023-09-07T10:31:13;4.63;;;2.40;;
33108;SDS011;19481;51.118;6.940;2023-09-07T10:36:21;2.30;;;1.80;;
33108;SDS011;19481;51.118;6.940;2023-09-07T10:41:24;2.95;;;2.17;;
33108;SDS011;19481;51.118;6.940;2023-09-07T10:46:27;3.35;;;1.88;;
33108;SDS011;19481;51.118;6.940;2023-09-07T10:51:29;4.70;;;2.00;;
33108;SDS011;19481;51.118;6.940;2023-09-07T10:56:30;3.42;;;2.17;;
33108;SDS011;19481;51.118;6.940;2023-09-07T11:01:33;3.13;;;1.63;;
33108;SDS011;19481;51.118;6.940;2023-09-07T11:06:35;2.88;;;1.60;;
33108;SDS011;19481;51.118;6.940;2023-09-07T11:11:37;2.83;;;1.85;;
33108;SDS011;19481;51.118;6.940;2023-09-07T11:16:40;2.30;;;2.10;;
33108;SDS011;19481;51.118;6.940;2023-09-07T11:21:43;2.50;;;2.30;;
33108;SDS011;19481;51.118;6.940;2023-09-07T11:26:45;2.55;;;1.80;;
33108;SDS011;19481;51.118;6.940;2023-09-07T11:31:49;2.42;;;2.13;;
33108;SDS011;19481;51.118;6.940;2023-09-07T11:36:50;1.70;;;1.60;;
33108;SDS011;19481;51.118;6.940;2023-09-07T11:41:52;2.10;;;1.90;;
33108;SDS011;19481;51.118;6.940;2023-09-07T11:46:56;1.75;;;1.65;;
33108;SDS011;19481;51.118;6.940;2023-09-07T11:51:57;2.42;;;1.85;;
33108;SDS011;19481;51.118;6.940;2023-09-07T11:56:59;2.20;;;2.00;;
33108;SDS011;19481;51.118;6.940;2023-09-07T12:02:02;1.80;;;1.65;;
33108;SDS011;19481;51.118;6.940;2023-09-07T12:07:04;3.47;;;1.90;;
33108;SDS011;19481;51.118;6.940;2023-09-07T12:12:06;2.30;;;1.92;;
33108;SDS011;19481;51.118;6.940;2023-09-07T12:17:09;3.38;;;1.60;;
33108;SDS011;19481;51.118;6.940;2023-09-07T12:22:11;2.13;;;1.90;;
33108;SDS011;19481;51.118;6.940;2023-09-07T12:27:12;1.80;;;1.67;;
33108;SDS011;19481;51.118;6.940;2023-09-07T12:32:15;7.30;;;2.00;;
33108;SDS011;19481;51.118;6.940;2023-09-07T12:37:17;3.08;;;1.95;;
33108;SDS011;19481;51.118;6.940;2023-09-07T12:42:19;2.05;;;1.88;;
33108;SDS011;19481;51.118;6.940;2023-09-07T12:47:22;3.75;;;2.28;;
33108;SDS011;19481;51.118;6.940;2023-09-07T12:52:23;2.25;;;2.05;;
33108;SDS011;19481;51.118;6.940;2023-09-07T12:57:25;3.33;;;2.03;;
33108;SDS011;19481;51.118;6.940;2023-09-07T13:02:28;2.10;;;1.90;;
33108;SDS011;19481;51.118;6.940;2023-09-07T13:07:30;4.20;;;2.20;;
33108;SDS011;19481;51.118;6.940;2023-09-07T13:12:32;3.72;;;1.88;;
33108;SDS011;19481;51.118;6.940;2023-09-07T13:17:35;2.10;;;1.90;;
33108;SDS011;19481;51.118;6.940;2023-09-07T13:22:37;5.75;;;2.40;;
33108;SDS011;19481;51.118;6.940;2023-09-07T13:27:38;2.22;;;1.70;;
33108;SDS011;19481;51.118;6.940;2023-09-07T13:32:41;4.30;;;2.35;;
33108;SDS011;19481;51.118;6.940;2023-09-07T13:37:46;2.97;;;2.17;;
33108;SDS011;19481;51.118;6.940;2023-09-07T13:42:47;5.82;;;2.13;;
33108;SDS011;19481;51.118;6.940;2023-09-07T13:47:50;2.20;;;1.80;;
33108;SDS011;19481;51.118;6.940;2023-09-07T13:52:52;2.35;;;2.15;;
33108;SDS011;19481;51.118;6.940;2023-09-07T13:57:54;3.83;;;2.33;;
33108;SDS011;19481;51.118;6.940;2023-09-07T14:02:56;4.60;;;1.70;;
33108;SDS011;19481;51.118;6.940;2023-09-07T14:07:58;2.25;;;1.90;;
33108;SDS011;19481;51.118;6.940;2023-09-07T14:13:00;2.53;;;2.10;;
33108;SDS011;19481;51.118;6.940;2023-09-07T14:18:03;2.47;;;1.98;;
33108;SDS011;19481;51.118;6.940;2023-09-07T14:23:05;2.10;;;1.90;;
33108;SDS011;19481;51.118;6.940;2023-09-07T14:28:07;2.80;;;2.10;;
33108;SDS011;19481;51.118;6.940;2023-09-07T14:33:10;5.53;;;1.73;;
33108;SDS011;19481;51.118;6.940;2023-09-07T14:38:12;2.70;;;2.08;;
33108;SDS011;19481;51.118;6.940;2023-09-07T14:43:13;1.77;;;1.67;;
33108;SDS011;19481;51.118;6.940;2023-09-07T14:48:16;3.80;;;1.90;;
33108;SDS011;19481;51.118;6.940;2023-09-07T14:53:18;2.83;;;1.90;;
33108;SDS011;19481;51.118;6.940;2023-09-07T14:58:20;5.15;;;1.98;;
33108;SDS011;19481;51.118;6.940;2023-09-07T15:03:23;2.17;;;1.60;;
33108;SDS011;19481;51.118;6.940;2023-09-07T15:08:24;2.60;;;1.92;;
33108;SDS011;19481;51.118;6.940;2023-09-07T15:13:26;2.67;;;2.08;;
33108;SDS011;19481;51.118;6.940;2023-09-07T15:18:30;1.92;;;1.75;;
33108;SDS011;19481;51.118;6.940;2023-09-07T15:23:32;2.45;;;2.00;;
33108;SDS011;19481;51.118;6.940;2023-09-07T15:28:36;1.90;;;1.80;;
33108;SDS011;19481;51.118;6.940;2023-09-07T15:33:40;3.92;;;1.88;;
33108;SDS011;19481;51.118;6.940;2023-09-07T15:38:41;2.25;;;1.50;;
33108;SDS011;19481;51.118;6.940;2023-09-07T15:43:43;1.95;;;1.75;;
33108;SDS011;19481;51.118;6.940;2023-09-07T15:48:46;5.00;;;1.80;;
33108;SDS011;19481;51.118;6.940;2023-09-07T15:53:48;2.80;;;1.90;;
33108;SDS011;19481;51.118;6.940;2023-09-07T15:58:49;2.83;;;2.08;;
33108;SDS011;19481;51.118;6.940;2023-09-07T16:03:52;3.33;;;2.03;;
33108;SDS011;19481;51.118;6.940;2023-09-07T16:08:54;1.48;;;1.38;;
33108;SDS011;19481;51.118;6.940;2023-09-07T16:13:55;3.58;;;1.77;;
33108;SDS011;19481;51.118;6.940;2023-09-07T16:18:58;3.25;;;1.92;;
33108;SDS011;19481;51.118;6.940;2023-09-07T16:24:00;2.10;;;1.65;;
33108;SDS011;19481;51.118;6.940;2023-09-07T16:29:02;2.53;;;2.00;;
33108;SDS011;19481;51.118;6.940;2023-09-07T16:34:05;2.25;;;1.42;;
33108;SDS011;19481;51.118;6.940;2023-09-07T16:39:07;2.00;;;1.73;;
33108;SDS011;19481;51.118;6.940;2023-09-07T16:44:08;3.28;;;1.65;;
33108;SDS011;19481;51.118;6.940;2023-09-07T16:49:11;2.40;;;2.17;;
33108;SDS011;19481;51.118;6.940;2023-09-07T16:54:13;2.30;;;1.92;;
33108;SDS011;19481;51.118;6.940;2023-09-07T16:59:14;6.82;;;2.75;;
33108;SDS011;19481;51.118;6.940;2023-09-07T17:04:18;2.78;;;2.10;;
33108;SDS011;19481;51.118;6.940;2023-09-07T17:09:25;4.22;;;2.53;;
33108;SDS011;19481;51.118;6.940;2023-09-07T17:14:26;2.88;;;2.20;;
33108;SDS011;19481;51.118;6.940;2023-09-07T17:19:30;2.40;;;1.98;;
33108;SDS011;19481;51.118;6.940;2023-09-07T17:24:32;2.42;;;2.22;;
33108;SDS011;19481;51.118;6.940;2023-09-07T17:29:33;3.35;;;2.20;;
33108;SDS011;19481;51.118;6.940;2023-09-07T17:34:36;2.28;;;1.95;;
33108;SDS011;19481;51.118;6.940;2023-09-07T17:39:38;2.97;;;1.80;;
33108;SDS011;19481;51.118;6.940;2023-09-07T17:44:40;3.17;;;2.15;;
33108;SDS011;19481;51.118;6.940;2023-09-07T17:49:43;2.53;;;2.33;;
33108;SDS011;19481;51.118;6.940;2023-09-07T17:54:45;3.08;;;2.10;;
33108;SDS011;19481;51.118;6.940;2023-09-07T17:59:47;4.47;;;2.13;;
33108;SDS011;19481;51.118;6.940;2023-09-07T18:04:51;3.20;;;2.63;;
33108;SDS011;19481;51.118;6.940;2023-09-07T18:09:54;4.22;;;2.47;;
33108;SDS011;19481;51.118;6.940;2023-09-07T18:14:55;2.75;;;1.75;;
33108;SDS011;19481;51.118;6.940;2023-09-07T18:19:58;5.50;;;2.47;;
33108;SDS011;19481;51.118;6.940;2023-09-07T18:25:00;14.23;;;6.40;;
33108;SDS011;19481;51.118;6.940;2023-09-07T18:30:02;3.60;;;2.83;;
33108;SDS011;19481;51.118;6.940;2023-09-07T18:35:07;3.38;;;2.65;;
33108;SDS011;19481;51.118;6.940;2023-09-07T18:40:09;3.17;;;2.75;;
33108;SDS011;19481;51.118;6.940;2023-09-07T18:45:11;7.60;;;3.97;;
33108;SDS011;19481;51.118;6.940;2023-09-07T18:50:14;5.40;;;2.95;;
33108;SDS011;19481;51.118;6.940;2023-09-07T18:55:17;8.00;;;2.78;;
33108;SDS011;19481;51.118;6.940;2023-09-07T19:00:19;2.50;;;2.30;;
33108;SDS011;19481;51.118;6.940;2023-09-07T19:05:22;3.70;;;2.78;;
33108;SDS011;19481;51.118;6.940;2023-09-07T19:10:24;4.40;;;2.60;;
33108;SDS011;19481;51.118;6.940;2023-09-07T19:15:27;4.55;;;2.50;;
33108;SDS011;19481;51.118;6.940;2023-09-07T19:20:30;6.03;;;2.80;;
33108;SDS011;19481;51.118;6.940;2023-09-07T19:25:31;5.38;;;3.60;;
33108;SDS011;19481;51.118;6.940;2023-09-07T19:30:34;6.57;;;4.43;;
33108;SDS011;19481;51.118;6.940;2023-09-07T19:35:37;7.97;;;3.75;;
33108;SDS011;19481;51.118;6.940;2023-09-07T19:40:39;4.53;;;3.50;;
33108;SDS011;19481;51.118;6.940;2023-09-07T19:45:43;4.40;;;3.20;;
33108;SDS011;19481;51.118;6.940;2023-09-07T19:50:47;4.88;;;3.15;;
33108;SDS011;19481;51.118;6.940;2023-09-07T19:55:48;3.65;;;3.10;;
33108;SDS011;19481;51.118;6.940;2023-09-07T20:00:50;6.32;;;3.20;;
33108;SDS011;19481;51.118;6.940;2023-09-07T20:05:53;5.40;;;3.30;;
33108;SDS011;19481;51.118;6.940;2023-09-07T20:10:54;8.00;;;3.38;;
33108;SDS011;19481;51.118;6.940;2023-09-07T20:15:56;4.82;;;3.10;;
33108;SDS011;19481;51.118;6.940;2023-09-07T20:20:59;6.07;;;3.45;;
33108;SDS011;19481;51.118;6.940;2023-09-07T20:26:01;5.05;;;2.90;;
33108;SDS011;19481;51.118;6.940;2023-09-07T20:31:02;4.13;;;3.05;;
33108;SDS011;19481;51.118;6.940;2023-09-07T20:36:06;5.18;;;2.92;;
33108;SDS011;19481;51.118;6.940;2023-09-07T20:41:08;5.95;;;3.10;;
33108;SDS011;19481;51.118;6.940;2023-09-07T20:46:10;5.07;;;3.83;;
33108;SDS011;19481;51.118;6.940;2023-09-07T20:51:15;7.45;;;3.95;;
33108;SDS011;19481;51.118;6.940;2023-09-07T20:56:16;5.20;;;3.08;;
33108;SDS011;19481;51.118;6.940;2023-09-07T21:01:18;5.07;;;3.35;;
33108;SDS011;19481;51.118;6.940;2023-09-07T21:06:21;8.15;;;3.58;;
33108;SDS011;19481;51.118;6.940;2023-09-07T21:11:23;4.03;;;3.63;;
33108;SDS011;19481;51.118;6.940;2023-09-07T21:16:24;5.60;;;3.50;;
33108;SDS011;19481;51.118;6.940;2023-09-07T21:21:27;4.47;;;3.60;;
33108;SDS011;19481;51.118;6.940;2023-09-07T21:26:29;5.72;;;4.13;;
33108;SDS011;19481;51.118;6.940;2023-09-07T21:31:30;3.72;;;3.35;;
33108;SDS011;19481;51.118;6.940;2023-09-07T21:36:33;6.07;;;3.30;;
33108;SDS011;19481;51.118;6.940;2023-09-07T21:41:43;5.35;;;3.15;;
33108;SDS011;19481;51.118;6.940;2023-09-07T21:46:47;3.03;;;2.67;;
33108;SDS011;19481;51.118;6.940;2023-09-07T21:51:51;3.42;;;2.85;;
33108;SDS011;19481;51.118;6.940;2023-09-07T21:56:53;3.85;;;3.33;;
33108;SDS011;19481;51.118;6.940;2023-09-07T22:01:54;4.68;;;3.03;;
33108;SDS011;19481;51.118;6.940;2023-09-07T22:06:57;3.97;;;3.17;;
33108;SDS011;19481;51.118;6.940;2023-09-07T22:11:59;4.10;;;3.05;;
33108;SDS011;19481;51.118;6.940;2023-09-07T22:17:01;8.93;;;2.88;;
33108;SDS011;19481;51.118;6.940;2023-09-07T22:22:05;3.65;;;2.85;;
33108;SDS011;19481;51.118;6.940;2023-09-07T22:27:07;5.65;;;3.05;;
33108;SDS011;19481;51.118;6.940;2023-09-07T22:32:09;3.60;;;3.10;;
33108;SDS011;19481;51.118;6.940;2023-09-07T22:37:12;6.80;;;2.92;;
33108;SDS011;19481;51.118;6.940;2023-09-07T22:42:14;3.75;;;3.35;;
33108;SDS011;19481;51.118;6.940;2023-09-07T22:47:15;3.58;;;3.08;;
33108;SDS011;19481;51.118;6.940;2023-09-07T22:52:18;7.97;;;2.75;;
33108;SDS011;19481;51.118;6.940;2023-09-07T22:57:20;5.13;;;3.08;;
33108;SDS011;19481;51.118;6.940;2023-09-07T23:02:21;3.05;;;2.70;;
33108;SDS011;19481;51.118;6.940;2023-09-07T23:07:24;3.28;;;2.97;;
33108;SDS011;19481;51.118;6.940;2023-09-07T23:12:26;3.72;;;2.83;;
33108;SDS011;19481;51.118;6.940;2023-09-07T23:17:28;3.45;;;2.95;;
33108;SDS011;19481;51.118;6.940;2023-09-07T23:22:31;4.78;;;2.80;;
33108;SDS011;19481;51.118;6.940;2023-09-07T23:27:32;11.55;;;3.00;;
33108;SDS011;19481;51.118;6.940;2023-09-07T23:32:37;5.03;;;2.92;;
33108;SDS011;19481;51.118;6.940;2023-09-07T23:37:41;3.03;;;2.72;;
33108;SDS011;19481;51.118;6.940;2023-09-07T23:42:43;3.03;;;2.72;;
33108;SDS011;19481;51.118;6.940;2023-09-07T23:47:45;2.92;;;2.63;;
33108;SDS011;19481;51.118;6.940;2023-09-07T23:52:48;7.35;;;2.40;;
33108;SDS011;19481;51.118;6.940;2023-09-07T23:57:49;4.85;;;2.95;;
